»·PEaware :: N6818R KEUG-KRNO

N6818R :: KEUG-KRNO

FLIGHT INFORMATION

Flight Status: Arrived
Operator: Privately registered:
United States
More flights under this callsign
Pilot: John P. (31881)
Aircraft: BEECH AIRCRAFT 300 SUPER KING AIR
(BE30)
More flights by this aircraft type
Origin: KEUG Mahlon Sweet
United States
Destination: KRNO Reno/Tahoe Intl
United States
More flights between these airports :: More routes between these airports
Route:
File this flight plan on PilotEdge
Remarks:
Altitude:
(Current/Filed)
10,500ft
Speed:
(Current/Filed)
200kts
Departed: 14-Nov-20 09:35 AM
Arrived: 14-Nov-20 10:57 AM
Distance/Time
Traveled:
6790nm/1:22
Distance/Time
To Go:
Arrived

Flight Plot

Page will automatically refresh every two minutes.

Flight plan parsing failed; only flown route is shown


Map Options




Map Legend


Flown Route
Filed Route
Departure Airport
Arrival Airport
Navaid (VOR, NDB)
Fix

Horizontal Profiles

Position Reports

Time Latitude Longitude Heading Altitude Ground
Speed
14-Nov-20 09:18 44.125389 -123.209936 306 371ft 0kts
14-Nov-20 09:19 44.125389 -123.209936 306 371ft 0kts
14-Nov-20 09:20 44.125389 -123.209936 306 371ft 0kts
14-Nov-20 09:21 44.125389 -123.209936 306 371ft 0kts
14-Nov-20 09:22 44.125389 -123.209936 306 371ft 0kts
14-Nov-20 09:23 44.125389 -123.209936 306 371ft 0kts
14-Nov-20 09:24 44.125389 -123.209936 306 371ft 0kts
14-Nov-20 09:25 44.125389 -123.209936 306 371ft 0kts
14-Nov-20 09:26 44.125389 -123.209936 306 371ft 0kts
14-Nov-20 09:27 44.126011 -123.210486 65 370ft 2kts
14-Nov-20 09:28 44.128309 -123.204196 359 372ft 37kts
14-Nov-20 09:29 44.132835 -123.203907 74 369ft 0kts
14-Nov-20 09:30 44.132835 -123.203907 74 369ft 0kts
14-Nov-20 09:31 44.132835 -123.203907 74 369ft 0kts
14-Nov-20 09:32 44.132835 -123.203907 74 369ft 0kts
14-Nov-20 09:33 44.131673 -123.202674 182 373ft 19kts
14-Nov-20 09:34 44.106636 -123.202791 177 728ft 152kts
14-Nov-20 09:35 44.070855 -123.194923 126 2985ft 141kts
14-Nov-20 09:36 44.070122 -123.140439 124 4783ft 142kts
14-Nov-20 09:37 44.049779 -123.098507 141 6490ft 130kts
14-Nov-20 09:38 44.025233 -123.055954 138 8001ft 140kts
14-Nov-20 09:39 44.001447 -123.014733 139 9509ft 134kts
14-Nov-20 09:40 43.972116 -122.963975 135 10376ft 192kts
14-Nov-20 09:41 43.931729 -122.893941 133 10524ft 263kts
14-Nov-20 09:42 43.883613 -122.810908 133 10523ft 285kts
14-Nov-20 09:43 43.833054 -122.723815 133 10542ft 291kts
14-Nov-20 09:44 43.782548 -122.637209 133 10474ft 286kts
14-Nov-20 09:45 43.732843 -122.552128 133 10482ft 281kts
14-Nov-20 09:46 43.683709 -122.468375 133 10559ft 282kts
14-Nov-20 09:47 43.634289 -122.384313 132 10576ft 283kts
14-Nov-20 09:48 43.584669 -122.300085 132 10545ft 278kts
14-Nov-20 09:49 43.535798 -122.217435 131 10546ft 278kts
14-Nov-20 09:50 43.486569 -122.134480 132 10547ft 281kts
14-Nov-20 09:51 43.437230 -122.051498 132 10539ft 278kts
14-Nov-20 09:52 43.388361 -121.969532 132 10547ft 277kts
14-Nov-20 09:53 43.339458 -121.887741 132 10543ft 277kts
14-Nov-20 09:55 43.290527 -121.806167 132 10536ft 276kts
14-Nov-20 09:56 43.241483 -121.724604 133 10559ft 278kts
14-Nov-20 09:57 43.192221 -121.642944 133 10545ft 276kts
14-Nov-20 09:58 43.143205 -121.561880 133 10550ft 275kts
14-Nov-20 09:59 43.094225 -121.481089 133 10557ft 275kts
14-Nov-20 10:00 43.045271 -121.400593 133 10555ft 275kts
14-Nov-20 10:01 42.996182 -121.320098 133 10570ft 275kts
14-Nov-20 10:02 42.947361 -121.240229 133 10557ft 273kts
14-Nov-20 10:03 42.898386 -121.160385 133 10573ft 275kts
14-Nov-20 10:04 42.849168 -121.080309 133 10577ft 275kts
14-Nov-20 10:05 42.800110 -121.000716 133 10586ft 273kts
14-Nov-20 10:06 42.751214 -120.921594 133 10589ft 273kts
14-Nov-20 10:07 42.702257 -120.842619 133 10598ft 272kts
14-Nov-20 10:08 42.653140 -120.763590 133 10601ft 273kts
14-Nov-20 10:09 42.604169 -120.684993 132 10600ft 272kts
14-Nov-20 10:09 42.563485 -120.619899 132 10604ft 271kts
14-Nov-20 10:11 42.505222 -120.531148 149 10622ft 269kts
14-Nov-20 10:12 42.435272 -120.497568 167 10609ft 266kts
14-Nov-20 10:12 42.374573 -120.487680 173 10618ft 262kts
14-Nov-20 10:14 42.289806 -120.473692 174 10619ft 263kts
14-Nov-20 10:14 42.229392 -120.463766 174 10620ft 262kts
14-Nov-20 10:16 42.144820 -120.449919 174 10626ft 263kts
14-Nov-20 10:16 42.084009 -120.439979 174 10629ft 263kts
14-Nov-20 10:17 42.011223 -120.428131 174 10632ft 264kts
14-Nov-20 10:18 41.938396 -120.416288 174 10631ft 264kts
14-Nov-20 10:19 41.865355 -120.404444 174 10628ft 264kts
14-Nov-20 10:20 41.792013 -120.392581 174 10624ft 264kts
14-Nov-20 10:21 41.718947 -120.380779 174 10620ft 264kts
14-Nov-20 10:22 41.645778 -120.369002 173 10616ft 265kts
14-Nov-20 10:23 41.572279 -120.357188 173 10610ft 266kts
14-Nov-20 10:24 41.498924 -120.345412 173 10597ft 265kts
14-Nov-20 10:25 41.425410 -120.333667 173 10590ft 265kts
14-Nov-20 10:26 41.352437 -120.322006 173 10590ft 264kts
14-Nov-20 10:27 41.279132 -120.310359 173 10588ft 264kts
14-Nov-20 10:28 41.206256 -120.298778 173 10582ft 264kts
14-Nov-20 10:29 41.133094 -120.287181 173 10577ft 263kts
14-Nov-20 10:30 41.060397 -120.275682 173 10580ft 264kts
14-Nov-20 10:31 40.987519 -120.264171 173 10582ft 264kts
14-Nov-20 10:32 40.914368 -120.252658 173 10581ft 264kts
14-Nov-20 10:33 40.850235 -120.212794 158 10585ft 264kts
14-Nov-20 10:34 40.777801 -120.201643 177 10582ft 263kts
14-Nov-20 10:35 40.704709 -120.205157 186 10579ft 264kts
14-Nov-20 10:36 40.631229 -120.209408 172 10584ft 266kts
14-Nov-20 10:37 40.558116 -120.196930 173 10583ft 266kts
14-Nov-20 10:38 40.484479 -120.185468 173 10583ft 266kts
14-Nov-20 10:39 40.419658 -120.175447 174 12407ft 231kts
14-Nov-20 10:40 40.351774 -120.164910 174 12576ft 255kts
14-Nov-20 10:41 40.278439 -120.152114 170 12569ft 272kts
14-Nov-20 10:42 40.206471 -120.120532 162 12566ft 275kts
14-Nov-20 10:43 40.134749 -120.084823 160 12557ft 275kts
14-Nov-20 10:44 40.063318 -120.048931 160 12557ft 275kts
14-Nov-20 10:45 39.992232 -120.013315 159 12210ft 270kts
14-Nov-20 10:46 39.923340 -119.978818 159 11196ft 262kts
14-Nov-20 10:47 39.855335 -119.952372 189 10214ft 258kts
14-Nov-20 10:48 39.806513 -119.902633 109 9574ft 244kts
14-Nov-20 10:49 39.776128 -119.829058 141 9530ft 230kts
14-Nov-20 10:50 39.723314 -119.784102 155 9535ft 249kts
14-Nov-20 10:51 39.658482 -119.740915 153 9503ft 270kts
14-Nov-20 10:52 39.592479 -119.704062 183 8966ft 259kts
14-Nov-20 10:53 39.556265 -119.755577 254 7434ft 176kts
14-Nov-20 10:54 39.514630 -119.766640 183 4612ft 138kts
14-Nov-20 10:55 39.491938 -119.766788 178 4414ft 44kts
14-Nov-20 10:56 39.489309 -119.765606 61 4408ft 0kts
14-Nov-20 10:57 39.491376 -119.765224 359 4410ft 19kts
14-Nov-20 10:58 39.500242 -119.765267 359 4412ft 32kts
14-Nov-20 10:59 39.501244 -119.764787 88 4411ft 0kts
14-Nov-20 11:00 0.000408 0.013975 0 5ft 0kts
14-Nov-20 11:01 0.000408 0.013975 0 5ft 0kts
14-Nov-20 11:02 0.000408 0.013975 0 5ft 0kts
14-Nov-20 11:03 0.000408 0.013975 0 5ft 0kts
14-Nov-20 11:04 0.000408 0.013975 0 5ft 0kts
14-Nov-20 11:05 0.000408 0.013975 0 5ft 0kts
14-Nov-20 11:06 0.000408 0.013975 0 5ft 0kts
14-Nov-20 11:07 0.000408 0.013975 0 5ft 0kts
14-Nov-20 11:08 0.000408 0.013975 0 5ft 0kts
14-Nov-20 11:09 0.000408 0.013975 0 5ft 0kts
14-Nov-20 11:10 0.000408 0.013975 0 5ft 0kts
14-Nov-20 11:11 0.000408 0.013975 0 5ft 0kts

Navigation Log

Ident Type
Flight plan parsing failed, navigation log unavailable